createdAt,value
2017-12-27T12:44:54.110Z,6244.00
2017-12-27T12:44:54.676Z,6176.00
2017-12-27T12:44:55.186Z,6112.00
2017-12-27T12:49:08.487Z,7656.00
2017-12-27T12:49:09.039Z,7664.00
2017-12-27T12:49:09.557Z,7660.00
2017-12-27T12:49:10.088Z,7664.00
2017-12-27T12:49:10.678Z,7664.00
2017-12-27T12:49:11.139Z,7656.00
2017-12-27T12:49:11.675Z,7648.00
2017-12-27T12:49:12.209Z,7596.00
2017-12-27T12:51:46.398Z,7044.00
2017-12-27T12:51:46.941Z,7040.00
2017-12-27T12:51:47.470Z,7040.00
2017-12-27T12:51:48.017Z,7052.00
2017-12-27T12:51:48.505Z,7052.00
2017-12-27T12:51:49.065Z,7048.00
2017-12-27T14:20:44.940Z,8.00
2017-12-27T14:20:45.345Z,8.00
2017-12-27T14:20:45.880Z,8.00
2017-12-27T14:20:46.527Z,8.00
2017-12-27T14:20:47.128Z,8.00
2017-12-27T14:20:47.745Z,4.00
2017-12-27T14:21:41.925Z,4.00
2017-12-27T14:21:42.207Z,4.00
2017-12-27T14:21:42.804Z,4.00
2017-12-27T14:21:43.368Z,4.00
2017-12-27T14:21:43.925Z,4.00
2017-12-27T14:21:44.383Z,4.00
2017-12-27T14:21:45.125Z,4.00
2017-12-27T14:22:39.570Z,4.00
2017-12-27T14:22:40.144Z,4.00
2017-12-27T14:22:40.531Z,4.00
2017-12-27T14:22:40.995Z,4.00
2017-12-27T14:22:41.548Z,4.00
2017-12-27T14:24:26.247Z,4.00
2017-12-27T14:24:26.790Z,4.00
2017-12-27T14:24:27.127Z,4.00
2017-12-27T14:24:27.943Z,4.00
2017-12-27T14:24:28.230Z,4.00
2017-12-27T14:25:41.010Z,4.00
2017-12-27T14:25:41.533Z,4.00
2017-12-27T14:25:41.908Z,4.00
2017-12-27T14:25:42.522Z,4.00
2017-12-27T14:25:43.130Z,4.00
2017-12-27T14:25:43.588Z,4.00
2017-12-27T14:25:44.188Z,4.00
2017-12-27T14:26:57.182Z,4.00
2017-12-27T14:26:57.606Z,4.00
2017-12-27T14:26:58.087Z,4.00
2017-12-27T14:26:58.551Z,4.00
2017-12-27T14:26:59.087Z,4.00
2017-12-27T14:26:59.691Z,4.00
2017-12-27T14:27:00.329Z,4.00
2017-12-27T14:27:53.808Z,4.00
2017-12-27T14:27:54.147Z,4.00
2017-12-27T14:27:54.692Z,4.00
2017-12-27T14:27:55.232Z,4.00
2017-12-27T14:27:55.849Z,4.00
2017-12-27T14:27:56.305Z,4.00
2017-12-27T14:27:56.948Z,4.00
2017-12-27T14:28:51.517Z,4.00
2017-12-27T14:28:52.090Z,4.00
2017-12-27T14:28:52.652Z,4.00
2017-12-27T14:28:53.072Z,4.00
2017-12-27T14:28:53.730Z,4.00
2017-12-27T14:29:47.370Z,76.00
2017-12-27T14:29:47.629Z,104.00
2017-12-27T14:29:48.031Z,56.00
2017-12-27T14:29:48.588Z,12.00
2017-12-27T14:29:49.247Z,20.00
2017-12-27T14:29:49.687Z,48.00
2017-12-27T14:29:50.322Z,80.00
2017-12-27T14:30:43.099Z,604.00
2017-12-27T14:30:43.626Z,612.00
2017-12-27T14:30:44.136Z,604.00
2017-12-27T14:30:44.678Z,596.00
2017-12-27T14:30:45.189Z,584.00
2017-12-27T14:30:45.723Z,616.00
2017-12-27T14:30:46.274Z,540.00
2017-12-27T14:30:46.838Z,596.00
2017-12-27T14:31:40.794Z,504.00
2017-12-27T14:31:41.308Z,588.00
2017-12-27T14:31:41.817Z,488.00
2017-12-27T14:31:42.340Z,624.00
2017-12-27T14:31:42.848Z,668.00
2017-12-27T14:31:43.367Z,668.00
2017-12-27T14:31:43.892Z,652.00
2017-12-27T14:31:44.425Z,644.00
2017-12-27T14:32:37.491Z,916.00
2017-12-27T14:32:38.050Z,916.00
2017-12-27T14:32:38.562Z,912.00
2017-12-27T14:32:39.090Z,908.00
2017-12-27T14:32:39.608Z,892.00
2017-12-27T14:32:40.067Z,860.00
2017-12-27T14:32:40.620Z,780.00
2017-12-27T14:32:41.132Z,708.00
2017-12-27T14:33:36.022Z,848.00
2017-12-27T14:33:36.579Z,844.00
2017-12-27T14:33:37.146Z,840.00
2017-12-27T14:33:37.666Z,836.00
2017-12-27T14:33:38.182Z,836.00
2017-12-27T14:33:38.742Z,836.00
2017-12-27T14:34:32.713Z,780.00
2017-12-27T14:34:33.242Z,780.00
2017-12-27T14:34:33.752Z,780.00
2017-12-27T14:34:34.273Z,784.00
2017-12-27T14:34:34.795Z,784.00
2017-12-27T14:34:35.334Z,780.00
2017-12-27T14:34:35.844Z,784.00
2017-12-27T14:34:36.371Z,780.00
2017-12-27T14:35:30.352Z,748.00
2017-12-27T14:35:30.864Z,744.00
2017-12-27T14:35:31.408Z,736.00
2017-12-27T14:35:31.967Z,740.00
2017-12-27T14:35:32.492Z,732.00
2017-12-27T14:35:33.011Z,736.00
2017-12-27T14:35:33.570Z,740.00
2017-12-27T14:35:34.123Z,740.00
2017-12-27T14:36:28.141Z,756.00
2017-12-27T14:36:28.659Z,756.00
2017-12-27T14:36:29.167Z,756.00
2017-12-27T14:36:29.687Z,756.00
2017-12-27T14:36:30.198Z,756.00
2017-12-27T14:36:30.752Z,752.00
2017-12-27T14:36:31.278Z,752.00
2017-12-27T14:36:31.858Z,752.00
2017-12-27T14:37:25.833Z,700.00
2017-12-27T14:37:26.345Z,700.00
2017-12-27T14:37:26.869Z,696.00
2017-12-27T14:37:27.398Z,696.00
2017-12-27T14:37:27.917Z,700.00
2017-12-27T14:37:28.399Z,700.00
2017-12-27T14:37:28.919Z,696.00
2017-12-27T14:37:29.477Z,696.00
2017-12-27T14:46:21.827Z,772.00
2017-12-27T14:46:22.342Z,780.00
2017-12-27T14:46:22.865Z,780.00
2017-12-27T14:46:23.411Z,784.00
2017-12-27T14:46:23.923Z,780.00
2017-12-27T14:46:24.447Z,784.00
2017-12-27T14:46:24.997Z,788.00
2017-12-27T14:46:25.553Z,728.00
2017-12-27T14:47:19.556Z,772.00
2017-12-27T14:47:20.113Z,772.00
2017-12-27T14:47:20.639Z,772.00
2017-12-27T14:47:21.154Z,772.00
2017-12-27T14:47:21.700Z,776.00
2017-12-27T14:47:22.280Z,776.00
2017-12-27T14:47:22.836Z,776.00
2017-12-27T14:47:23.394Z,776.00
2017-12-27T14:48:17.498Z,900.00
2017-12-27T14:48:18.043Z,904.00
2017-12-27T14:48:18.619Z,904.00
2017-12-27T14:48:19.180Z,904.00
2017-12-27T14:48:19.738Z,908.00
2017-12-27T14:48:20.280Z,904.00
2017-12-27T14:48:20.860Z,908.00
2017-12-27T14:48:21.384Z,904.00
2017-12-27T14:48:21.958Z,892.00
2017-12-27T14:50:07.655Z,876.00
2017-12-27T14:50:08.164Z,876.00
2017-12-27T14:50:08.725Z,876.00
2017-12-27T14:50:09.285Z,876.00
2017-12-27T14:50:09.808Z,876.00
2017-12-27T14:50:10.341Z,876.00
2017-12-27T14:50:10.896Z,872.00
2017-12-27T14:50:11.421Z,876.00
2017-12-27T14:58:04.749Z,764.00
2017-12-27T14:58:05.340Z,760.00
2017-12-27T14:58:05.851Z,764.00
2017-12-27T14:58:06.459Z,764.00
2017-12-27T14:58:07.015Z,760.00
2017-12-27T14:58:07.565Z,764.00
2017-12-27T14:58:08.147Z,764.00
2017-12-27T14:58:08.663Z,764.00
2017-12-27T14:59:03.241Z,604.00
2017-12-27T14:59:03.750Z,568.00
2017-12-27T14:59:04.293Z,532.00
2017-12-27T14:59:04.787Z,556.00
2017-12-27T14:59:05.305Z,544.00
2017-12-27T14:59:05.833Z,568.00
2017-12-27T14:59:06.413Z,540.00
2017-12-27T14:59:06.985Z,560.00
2017-12-27T15:00:00.946Z,476.00
2017-12-27T15:00:01.480Z,532.00
2017-12-27T15:00:02.060Z,584.00
2017-12-27T15:00:02.612Z,612.00
2017-12-27T15:00:03.189Z,636.00
2017-12-27T15:00:03.717Z,652.00
2017-12-27T15:00:04.293Z,652.00
2017-12-27T15:00:04.841Z,656.00
2017-12-27T15:00:59.443Z,548.00
2017-12-27T15:00:59.964Z,576.00
2017-12-27T15:01:00.489Z,584.00
2017-12-27T15:01:01.007Z,584.00
2017-12-27T15:01:01.532Z,584.00
2017-12-27T15:01:02.051Z,584.00
2017-12-27T15:01:02.603Z,584.00
2017-12-27T15:01:03.183Z,584.00
2017-12-27T15:01:57.202Z,548.00
2017-12-27T15:01:57.712Z,548.00
2017-12-27T15:01:58.228Z,540.00
2017-12-27T15:01:58.800Z,528.00
2017-12-27T15:01:59.311Z,544.00
2017-12-27T15:01:59.844Z,544.00
2017-12-27T15:02:00.403Z,540.00
2017-12-27T15:02:00.978Z,552.00
2017-12-27T15:02:54.949Z,504.00
2017-12-27T15:02:55.484Z,504.00
2017-12-27T15:02:55.988Z,504.00
2017-12-27T15:02:56.550Z,500.00
2017-12-27T15:02:57.096Z,504.00
2017-12-27T15:02:57.680Z,500.00
2017-12-27T15:02:58.221Z,504.00
2017-12-27T15:02:58.795Z,500.00
2017-12-27T15:03:52.755Z,460.00
2017-12-27T15:03:53.316Z,464.00
2017-12-27T15:03:53.850Z,464.00
2017-12-27T15:03:54.372Z,460.00
2017-12-27T15:03:54.880Z,456.00
2017-12-27T15:03:55.491Z,456.00
2017-12-27T15:03:56.044Z,460.00
2017-12-27T15:03:56.611Z,456.00
2017-12-27T15:04:50.691Z,432.00
2017-12-27T15:04:51.245Z,428.00
2017-12-27T15:04:51.822Z,428.00
2017-12-27T15:04:52.338Z,432.00
2017-12-27T15:04:52.852Z,432.00
2017-12-27T15:04:53.414Z,424.00
2017-12-27T15:04:53.985Z,428.00
2017-12-27T15:04:54.506Z,428.00
2017-12-27T15:04:55.054Z,428.00
2017-12-27T15:05:49.006Z,420.00
2017-12-27T15:05:49.518Z,416.00
2017-12-27T15:05:50.040Z,420.00
2017-12-27T15:05:50.618Z,420.00
2017-12-27T15:05:51.131Z,420.00
2017-12-27T15:05:51.651Z,420.00
2017-12-27T15:05:52.211Z,424.00
2017-12-27T15:05:52.775Z,420.00
2017-12-27T15:06:46.814Z,400.00
2017-12-27T15:06:47.389Z,400.00
2017-12-27T15:06:47.898Z,404.00
2017-12-27T15:06:48.427Z,400.00
2017-12-27T15:06:49.051Z,400.00
2017-12-27T15:06:49.704Z,400.00
2017-12-27T15:06:50.351Z,396.00
2017-12-27T15:08:55.381Z,356.00
2017-12-27T15:08:55.898Z,316.00
2017-12-27T15:08:56.468Z,288.00
2017-12-27T15:08:57.028Z,288.00
2017-12-27T15:08:57.572Z,324.00
2017-12-27T15:08:58.088Z,336.00
2017-12-27T15:08:58.641Z,348.00
2017-12-27T15:08:59.189Z,348.00
2017-12-27T15:09:53.245Z,336.00
2017-12-27T15:09:53.795Z,336.00
2017-12-27T15:09:54.315Z,340.00
2017-12-27T15:09:54.884Z,336.00
2017-12-27T15:09:55.408Z,336.00
2017-12-27T15:09:55.991Z,340.00
2017-12-27T15:09:56.571Z,340.00
2017-12-27T15:09:57.113Z,336.00
2017-12-27T15:10:51.759Z,332.00
2017-12-27T15:10:52.343Z,332.00
2017-12-27T15:10:52.857Z,332.00
2017-12-27T15:10:53.375Z,332.00
2017-12-27T15:10:53.889Z,332.00
2017-12-27T15:10:54.415Z,332.00
2017-12-27T15:10:54.936Z,328.00
2017-12-27T15:10:55.457Z,332.00
2017-12-27T15:40:25.043Z,288.00
2017-12-27T15:40:25.621Z,284.00
2017-12-27T15:40:26.131Z,284.00
2017-12-27T15:42:11.239Z,284.00
2017-12-27T15:42:11.773Z,288.00
2017-12-27T15:42:12.302Z,288.00
2017-12-27T15:42:12.821Z,288.00
2017-12-27T15:42:13.339Z,288.00
2017-12-27T15:42:13.859Z,288.00
2017-12-27T15:42:14.439Z,288.00
2017-12-27T15:42:14.988Z,288.00
2017-12-27T15:43:08.971Z,284.00
2017-12-27T15:43:09.485Z,352.00
2017-12-27T15:43:09.998Z,284.00
2017-12-27T15:43:10.568Z,180.00
2017-12-27T15:43:11.095Z,20.00
2017-12-27T15:43:11.611Z,40.00
2017-12-27T15:43:12.148Z,20.00
2017-12-27T15:43:12.723Z,152.00
2017-12-27T15:44:07.763Z,312.00
2017-12-27T15:44:08.295Z,312.00
2017-12-27T15:44:08.844Z,312.00
2017-12-27T15:44:09.424Z,312.00
2017-12-27T15:44:09.933Z,312.00
2017-12-27T15:44:10.473Z,312.00
2017-12-27T15:45:04.517Z,312.00
2017-12-27T15:45:05.103Z,312.00
2017-12-27T15:45:05.626Z,312.00
2017-12-27T15:45:06.132Z,312.00
2017-12-27T15:45:06.653Z,312.00
2017-12-27T15:45:07.195Z,312.00
2017-12-27T15:46:00.172Z,312.00
2017-12-27T15:46:00.712Z,308.00
2017-12-27T15:46:01.234Z,308.00
2017-12-27T15:46:01.791Z,308.00
2017-12-27T15:46:02.329Z,308.00
2017-12-27T15:46:02.913Z,308.00
2017-12-27T15:46:03.450Z,308.00
2017-12-27T15:46:03.982Z,308.00
2017-12-27T15:46:57.002Z,308.00
2017-12-27T15:46:57.524Z,308.00
2017-12-27T15:46:58.038Z,308.00
2017-12-27T15:46:58.586Z,308.00
2017-12-27T15:46:59.101Z,308.00
2017-12-27T15:46:59.627Z,308.00
2017-12-27T15:47:00.172Z,308.00
2017-12-27T15:47:00.739Z,304.00
2017-12-27T16:54:05.263Z,4.00
2017-12-27T16:54:05.843Z,4.00
2017-12-27T16:54:06.405Z,4.00
2017-12-27T16:54:07.065Z,4.00
2017-12-27T16:54:07.571Z,4.00
2017-12-27T16:54:08.078Z,4.00
2017-12-27T16:55:01.925Z,4.00
2017-12-27T16:55:02.479Z,4.00
2017-12-27T16:55:03.023Z,4.00
2017-12-27T16:55:03.617Z,4.00
2017-12-27T16:55:04.143Z,4.00
2017-12-27T16:55:04.679Z,4.00
2017-12-27T16:55:05.219Z,4.00
2017-12-27T16:55:05.811Z,4.00
2017-12-27T16:55:59.695Z,4.00
2017-12-27T16:56:00.255Z,4.00
2017-12-27T16:56:00.787Z,4.00
2017-12-27T16:56:01.367Z,0.00
2017-12-27T16:56:01.891Z,4.00
2017-12-27T16:56:02.485Z,4.00
2017-12-27T16:56:03.049Z,0.00
2017-12-27T16:56:03.563Z,4.00
2017-12-27T16:56:56.477Z,4.00
2017-12-27T16:56:57.013Z,4.00
2017-12-27T16:56:57.534Z,4.00
2017-12-27T16:56:58.061Z,4.00
2017-12-27T16:56:58.649Z,4.00
2017-12-27T16:56:59.231Z,4.00
2017-12-27T16:56:59.768Z,4.00
2017-12-27T16:57:00.501Z,4.00
2017-12-27T16:57:54.949Z,4.00
2017-12-27T16:57:55.527Z,4.00
2017-12-27T16:57:56.093Z,4.00
2017-12-27T16:57:56.653Z,4.00
2017-12-27T16:57:57.217Z,4.00
2017-12-27T16:57:57.751Z,4.00
2017-12-27T16:57:58.333Z,4.00
2017-12-27T16:57:58.897Z,4.00
2017-12-27T16:58:52.902Z,4.00
2017-12-27T16:58:53.452Z,4.00
2017-12-27T16:58:54.017Z,4.00
2017-12-27T16:58:54.578Z,4.00
2017-12-27T16:58:55.140Z,4.00
2017-12-27T16:58:55.678Z,4.00
2017-12-27T16:58:56.248Z,4.00
2017-12-27T16:58:56.824Z,4.00
2017-12-27T16:59:52.422Z,4.00
2017-12-27T16:59:52.960Z,4.00
2017-12-27T16:59:53.467Z,4.00
2017-12-27T16:59:53.996Z,4.00
2017-12-27T16:59:54.527Z,4.00
2017-12-27T16:59:55.009Z,4.00
2017-12-27T16:59:55.527Z,4.00
2017-12-27T16:59:56.071Z,4.00
2017-12-27T16:59:56.643Z,4.00
2017-12-27T16:59:57.221Z,4.00
2017-12-27T16:59:57.741Z,4.00
2017-12-27T16:59:58.273Z,4.00
2017-12-27T16:59:58.823Z,4.00
2017-12-27T16:59:59.382Z,4.00
2017-12-27T16:59:59.941Z,4.00
2017-12-27T17:00:00.464Z,4.00
2017-12-27T17:00:00.991Z,4.00
2017-12-27T17:00:01.531Z,4.00
2017-12-27T17:00:02.109Z,4.00
2017-12-27T17:00:02.630Z,4.00
2017-12-27T17:00:03.225Z,4.00
2017-12-27T17:00:03.747Z,4.00
2017-12-27T17:00:04.333Z,4.00
2017-12-27T17:00:04.860Z,4.00
2017-12-27T17:00:05.442Z,4.00
2017-12-27T17:00:06.019Z,4.00
2017-12-27T17:00:06.555Z,4.00
2017-12-27T17:00:07.085Z,4.00
2017-12-27T17:00:07.611Z,4.00
2017-12-27T17:00:08.155Z,4.00
2017-12-27T17:00:08.711Z,4.00
2017-12-27T17:00:09.270Z,4.00
2017-12-27T17:00:09.857Z,4.00
2017-12-27T17:00:10.421Z,4.00
2017-12-27T17:00:10.977Z,4.00
2017-12-27T17:00:11.531Z,4.00
2017-12-27T17:00:12.098Z,4.00
2017-12-27T17:00:12.666Z,4.00
2017-12-27T17:00:13.182Z,4.00
2017-12-27T17:00:13.773Z,4.00
2017-12-27T17:00:14.349Z,4.00
2017-12-27T17:00:14.908Z,4.00
2017-12-27T17:00:15.453Z,4.00
2017-12-27T17:00:16.039Z,4.00
2017-12-27T17:00:16.577Z,4.00
2017-12-27T17:00:17.131Z,4.00
2017-12-27T17:00:17.661Z,4.00
2017-12-27T17:00:18.202Z,4.00
2017-12-27T17:00:18.723Z,4.00
2017-12-27T17:00:19.289Z,4.00
2017-12-27T17:00:19.872Z,4.00
2017-12-27T17:00:20.411Z,4.00
2017-12-27T17:00:20.985Z,4.00
2017-12-27T17:00:21.509Z,4.00
2017-12-27T17:00:22.095Z,4.00
2017-12-27T17:00:22.651Z,4.00
2017-12-27T17:00:23.203Z,4.00
2017-12-27T17:00:23.785Z,4.00
2017-12-27T17:00:24.313Z,4.00
2017-12-27T17:00:24.902Z,4.00
2017-12-27T17:00:25.453Z,4.00
2017-12-27T17:00:26.029Z,4.00
2017-12-27T17:00:26.561Z,4.00
2017-12-27T17:00:27.094Z,4.00
2017-12-27T17:00:27.611Z,4.00
2017-12-27T17:00:28.176Z,4.00
2017-12-27T17:00:28.743Z,4.00
2017-12-27T17:00:29.301Z,4.00
2017-12-27T17:00:29.815Z,4.00
2017-12-27T17:00:30.391Z,4.00
2017-12-27T17:00:30.985Z,4.00
2017-12-27T17:00:31.529Z,4.00
2017-12-27T17:00:32.109Z,4.00
2017-12-27T17:00:32.635Z,4.00
2017-12-27T17:00:33.163Z,4.00
2017-12-27T17:00:33.692Z,4.00
2017-12-27T17:00:34.245Z,4.00
2017-12-27T17:00:34.781Z,4.00
2017-12-27T17:00:35.301Z,4.00
2017-12-27T17:00:35.828Z,4.00
2017-12-27T17:00:36.357Z,4.00
2017-12-27T17:00:36.897Z,4.00
2017-12-27T17:00:37.465Z,4.00
2017-12-27T17:00:38.025Z,4.00
2017-12-27T17:00:38.561Z,4.00
2017-12-27T17:00:39.079Z,4.00
2017-12-27T17:00:39.615Z,4.00
2017-12-27T17:00:40.173Z,4.00
2017-12-27T17:00:40.728Z,4.00
2017-12-27T17:00:41.300Z,4.00
2017-12-27T17:00:41.825Z,4.00
2017-12-27T17:00:42.353Z,4.00
2017-12-27T17:00:42.877Z,4.00
2017-12-27T17:00:43.459Z,4.00
2017-12-27T17:00:43.981Z,4.00
2017-12-27T17:00:44.579Z,4.00
2017-12-27T17:00:45.149Z,4.00
2017-12-27T17:00:45.677Z,4.00
2017-12-27T17:00:46.247Z,4.00
2017-12-27T17:00:46.828Z,4.00
2017-12-27T17:00:47.367Z,4.00
2017-12-27T17:00:47.934Z,4.00
2017-12-27T17:00:48.461Z,4.00
2017-12-27T17:00:49.045Z,4.00
2017-12-27T17:00:49.625Z,4.00
2017-12-27T17:00:50.190Z,4.00
2017-12-27T17:00:50.748Z,4.00
2017-12-27T17:00:51.259Z,4.00
2017-12-27T17:00:51.870Z,4.00
2017-12-27T17:00:52.410Z,4.00
2017-12-27T17:00:52.976Z,4.00
2017-12-27T17:00:53.537Z,4.00
2017-12-27T17:00:54.109Z,4.00
2017-12-27T17:00:54.656Z,4.00
2017-12-27T17:00:55.204Z,4.00
2017-12-27T17:00:55.726Z,4.00
2017-12-27T17:00:56.303Z,4.00
2017-12-27T17:00:56.879Z,4.00
2017-12-27T17:00:57.391Z,4.00
2017-12-27T17:00:57.919Z,4.00
2017-12-27T17:00:58.486Z,4.00
2017-12-27T17:00:59.067Z,4.00
2017-12-27T17:00:59.604Z,4.00
2017-12-27T17:01:00.187Z,4.00
2017-12-27T17:01:00.757Z,4.00
2017-12-27T17:01:01.278Z,4.00
2017-12-27T17:01:01.867Z,4.00
2017-12-27T17:01:02.391Z,4.00
2017-12-27T17:01:02.917Z,4.00
2017-12-27T17:01:03.458Z,4.00
2017-12-27T17:01:04.029Z,4.00
2017-12-27T17:01:04.561Z,4.00
2017-12-27T17:01:05.082Z,4.00
2017-12-27T17:01:05.627Z,4.00
2017-12-27T17:01:06.177Z,4.00
2017-12-27T17:01:06.749Z,4.00
2017-12-27T17:01:07.284Z,4.00
2017-12-27T17:01:07.795Z,4.00
2017-12-27T17:01:08.324Z,4.00
2017-12-27T17:01:08.851Z,4.00
2017-12-27T17:01:09.447Z,4.00
2017-12-27T17:01:10.008Z,4.00
2017-12-27T17:01:10.569Z,4.00
2017-12-27T17:01:11.137Z,4.00
2017-12-27T17:01:11.675Z,4.00
2017-12-27T17:01:12.223Z,4.00
2017-12-27T17:01:12.757Z,4.00
2017-12-27T17:01:13.291Z,4.00
2017-12-27T17:01:13.857Z,4.00
2017-12-27T17:01:14.383Z,4.00
2017-12-27T17:01:14.949Z,4.00
2017-12-27T17:01:15.521Z,4.00
2017-12-27T17:01:16.041Z,4.00
2017-12-27T17:01:16.562Z,4.00
2017-12-27T17:01:17.149Z,4.00
2017-12-27T17:01:17.694Z,4.00
2017-12-27T17:01:18.243Z,4.00
2017-12-27T17:01:18.825Z,4.00
2017-12-27T17:01:19.360Z,4.00
2017-12-27T17:01:19.885Z,4.00
2017-12-27T17:01:20.415Z,4.00
2017-12-27T17:01:20.927Z,4.00
2017-12-27T17:01:21.511Z,4.00
2017-12-27T17:01:22.095Z,4.00
2017-12-27T17:01:22.659Z,4.00
2017-12-27T17:01:23.169Z,4.00
2017-12-27T17:01:23.709Z,4.00
2017-12-27T17:01:24.235Z,4.00
2017-12-27T17:01:24.829Z,4.00
2017-12-27T17:01:25.363Z,4.00
2017-12-27T17:01:25.935Z,4.00
2017-12-27T17:01:26.476Z,4.00
2017-12-27T17:01:27.069Z,4.00
2017-12-27T17:01:27.601Z,4.00
2017-12-27T17:01:28.185Z,4.00
2017-12-27T17:01:28.731Z,4.00
2017-12-27T17:01:29.265Z,4.00
2017-12-27T17:01:29.825Z,4.00
2017-12-27T17:01:30.423Z,4.00
2017-12-27T17:01:30.983Z,4.00
2017-12-27T17:01:31.533Z,4.00
2017-12-27T17:01:32.051Z,4.00
2017-12-27T17:01:32.617Z,4.00
2017-12-27T17:01:33.191Z,4.00
2017-12-27T17:01:33.787Z,4.00
2017-12-27T17:01:34.323Z,4.00
2017-12-27T17:01:34.847Z,4.00
2017-12-27T17:01:35.371Z,4.00
2017-12-27T17:01:35.889Z,4.00
2017-12-27T17:01:36.462Z,4.00
2017-12-27T17:01:37.065Z,4.00
2017-12-27T17:01:37.597Z,4.00
2017-12-27T17:01:38.113Z,4.00
2017-12-27T17:01:38.651Z,4.00
2017-12-27T17:01:39.201Z,4.00
2017-12-27T17:01:39.771Z,4.00
2017-12-27T17:01:40.322Z,4.00
2017-12-27T17:01:40.897Z,4.00
2017-12-27T17:01:41.419Z,4.00
2017-12-27T17:01:42.019Z,4.00
2017-12-27T17:01:42.541Z,4.00
2017-12-27T17:01:43.069Z,4.00
2017-12-27T17:01:43.621Z,4.00
2017-12-27T17:01:44.141Z,4.00
2017-12-27T17:01:44.747Z,4.00
2017-12-27T17:01:45.295Z,4.00
2017-12-27T17:01:45.819Z,4.00
2017-12-27T17:01:46.319Z,4.00
2017-12-27T17:01:46.915Z,4.00
2017-12-27T17:01:47.431Z,4.00
2017-12-27T17:01:48.021Z,4.00
2017-12-27T17:01:48.577Z,4.00
2017-12-27T17:01:49.093Z,4.00
2017-12-27T17:01:49.617Z,4.00
2017-12-27T17:01:50.161Z,4.00
2017-12-27T17:01:50.697Z,4.00
2017-12-27T17:01:51.301Z,4.00
2017-12-27T17:01:51.853Z,4.00
2017-12-27T17:01:52.437Z,4.00
2017-12-27T17:01:52.997Z,4.00
2017-12-27T17:01:53.527Z,4.00
2017-12-27T17:01:54.092Z,4.00
2017-12-27T17:01:54.716Z,4.00
2017-12-27T17:01:55.180Z,4.00
2017-12-27T17:01:55.722Z,4.00
2017-12-27T17:01:56.241Z,4.00
2017-12-27T17:01:56.724Z,4.00
2017-12-27T17:01:57.233Z,4.00
2017-12-27T17:01:57.741Z,4.00
2017-12-27T17:01:58.259Z,4.00
2017-12-27T17:01:58.799Z,4.00
2017-12-27T17:01:59.375Z,4.00
2017-12-27T17:01:59.901Z,4.00
2017-12-27T17:02:00.501Z,4.00
2017-12-27T17:02:01.029Z,4.00
2017-12-27T17:02:01.601Z,4.00
2017-12-27T17:02:02.165Z,4.00
2017-12-27T17:02:02.697Z,4.00
2017-12-27T17:02:03.301Z,4.00
2017-12-27T17:02:03.853Z,4.00
2017-12-27T17:02:04.387Z,4.00
2017-12-27T17:02:04.949Z,4.00
2017-12-27T17:02:05.469Z,4.00
2017-12-27T17:02:06.046Z,4.00
2017-12-27T17:02:07.365Z,4.00
2017-12-27T17:02:07.991Z,4.00
2017-12-27T17:02:08.437Z,4.00
2017-12-27T17:02:08.991Z,4.00
2017-12-27T17:02:09.531Z,4.00
2017-12-27T17:06:26.685Z,4.00
2017-12-27T17:06:27.256Z,4.00
2017-12-27T17:06:27.778Z,4.00
2017-12-27T17:06:28.305Z,4.00
2017-12-27T17:06:28.807Z,4.00
2017-12-27T17:06:29.348Z,4.00
2017-12-27T17:29:34.416Z,416.00
2017-12-27T17:29:34.941Z,416.00
2017-12-27T17:29:35.451Z,412.00
2017-12-27T17:29:35.996Z,416.00
2017-12-27T17:29:36.486Z,412.00
2017-12-27T17:29:37.040Z,416.00
2017-12-27T17:29:37.579Z,416.00
2017-12-27T17:29:38.113Z,416.00
2017-12-27T17:29:38.660Z,416.00
2017-12-27T17:29:39.207Z,412.00
2017-12-27T17:29:39.750Z,416.00
2017-12-27T17:29:40.278Z,416.00
2017-12-27T17:29:40.796Z,412.00
2017-12-27T17:29:41.360Z,412.00
2017-12-27T17:29:41.886Z,412.00
2017-12-27T17:29:42.417Z,416.00
2017-12-27T17:29:42.956Z,416.00
2017-12-27T17:29:43.469Z,416.00
2017-12-27T17:29:44.024Z,412.00
2017-12-27T17:29:44.552Z,412.00
2017-12-27T17:29:45.102Z,416.00
2017-12-27T17:29:45.621Z,412.00
2017-12-27T17:29:46.165Z,412.00
2017-12-27T17:29:46.694Z,416.00
2017-12-27T17:29:47.230Z,412.00
2017-12-27T17:29:47.756Z,408.00
2017-12-27T17:29:48.271Z,392.00
2017-12-27T17:29:48.824Z,388.00
2017-12-27T17:29:49.309Z,404.00
2017-12-27T17:29:49.834Z,396.00
2017-12-27T17:29:50.366Z,384.00
